Portada
METAR-TAF:

METAR-TAF

Aeroports :

Orlando Executive Airport

Orlando, Florida, Estats Units d'Amèrica

latitud: 28-32-47N, longitud: 081-20-09W, altitud: 34 m

Observació

L'informe es va fer fa 8 minuts, a les 03:53 UTC
Vent calma
Temperatura 24°C
Humitat 89%
Pressió 1015 hPa
Visibilitat: 2.0 km
Escasses núvols a una alçada de 8000 ft
boirina

METAR: KORL 050353Z AUTO 00000KT 1 1/4SM BR FEW080 24/22 A2997 RMK AO2 SLP150 T02390217

Hora: 00:01 (04:01 UTC)


TAF: manca

Observacions i pronòstics meteorològics de més de 4000 aeroports (METAR i TAF).

Les estacions disponibles són els punts grocs i vermells al mapa.

Posi el ratolí al punt desitjat per veure el nom de l'estació.

Feu clic per veure les observacions i els pronòstics meteorològics.

Per canviar el mapa: feu clic els botons verds amb una creu de color negre per apropar; al botó verd amb un guió per allunyar la imatge; o en les fletxes verdes per a mapes adjacents.


METAR-TAF: